createdAt,value
2022-09-10T00:01:12.764Z,12.65
2022-09-10T00:03:39.613Z,12.30
2022-09-10T00:06:08.915Z,11.75
2022-09-10T00:11:06.912Z,12.05
2022-09-10T00:13:34.558Z,11.80
2022-09-10T00:16:04.368Z,12.40
2022-09-10T00:18:31.796Z,12.73
2022-09-10T00:20:59.667Z,12.15
2022-09-10T00:23:28.718Z,12.27
2022-09-10T00:25:57.867Z,11.93
2022-09-10T00:28:27.962Z,12.13
2022-09-10T00:30:55.455Z,10.27
2022-09-10T00:33:23.992Z,11.25
2022-09-10T00:35:50.914Z,13.32
2022-09-10T00:38:18.622Z,12.00
2022-09-10T00:40:45.633Z,12.25
2022-09-10T00:43:14.783Z,12.38
2022-09-10T00:45:45.434Z,12.32
2022-09-10T00:48:16.818Z,11.13
2022-09-10T00:50:46.743Z,11.20
2022-09-10T00:53:16.055Z,11.15
2022-09-10T00:58:13.940Z,10.32
2022-09-10T01:00:41.888Z,10.43
2022-09-10T01:03:13.762Z,10.93
2022-09-10T01:05:42.662Z,10.45
2022-09-10T01:08:13.565Z,10.77
2022-09-10T01:10:52.474Z,10.10
2022-09-10T01:13:32.787Z,10.48
2022-09-10T01:16:10.164Z,10.10
2022-09-10T01:18:49.114Z,10.73
2022-09-10T01:21:22.223Z,9.80
2022-09-10T01:24:16.527Z,10.90
2022-09-10T01:27:10.856Z,11.10
2022-09-10T01:29:48.708Z,11.32
2022-09-10T01:32:22.330Z,12.20
2022-09-10T01:34:56.669Z,12.48
2022-09-10T01:37:28.675Z,12.75
2022-09-10T01:39:56.647Z,12.40
2022-09-10T01:42:25.168Z,12.23
2022-09-10T01:44:55.111Z,13.48
2022-09-10T01:47:52.081Z,13.40
2022-09-10T01:50:25.760Z,11.82
2022-09-10T01:53:14.479Z,13.48
2022-09-10T01:55:50.454Z,13.48
2022-09-10T01:58:22.672Z,13.02
2022-09-10T02:03:37.405Z,12.40
2022-09-10T02:06:07.283Z,12.82
2022-09-10T02:08:39.432Z,13.40
2022-09-10T02:11:11.840Z,14.70
2022-09-10T02:13:45.122Z,14.15
2022-09-10T02:16:31.227Z,14.43
2022-09-10T02:18:59.744Z,14.15
2022-09-10T02:21:26.955Z,15.20
2022-09-10T02:23:57.163Z,15.70
2022-09-10T02:26:25.964Z,15.85
2022-09-10T02:28:54.652Z,16.50
2022-09-10T02:31:22.566Z,16.30
2022-09-10T02:33:51.395Z,16.48
2022-09-10T02:36:18.713Z,17.00
2022-09-10T02:38:45.776Z,16.52
2022-09-10T02:41:14.211Z,16.90
2022-09-10T02:46:10.023Z,15.95
2022-09-10T02:48:38.818Z,15.25
2022-09-10T02:51:08.843Z,16.02
2022-09-10T02:53:37.924Z,16.38
2022-09-10T02:56:07.710Z,18.45
2022-09-10T02:58:36.072Z,19.25
2022-09-10T03:01:08.870Z,18.50
2022-09-10T03:03:36.615Z,19.25
2022-09-10T03:06:04.289Z,19.52
2022-09-10T03:08:32.981Z,19.00
2022-09-10T03:10:59.969Z,19.48
2022-09-10T03:13:30.536Z,19.00
2022-09-10T03:15:59.938Z,18.98
2022-09-10T03:18:28.073Z,18.77
2022-09-10T03:20:55.177Z,18.05
2022-09-10T03:23:22.084Z,17.45
2022-09-10T03:25:50.437Z,18.33
2022-09-10T03:28:24.559Z,17.98
2022-09-10T03:30:52.021Z,17.58
2022-09-10T03:33:21.331Z,16.55
2022-09-10T03:35:48.470Z,16.20
2022-09-10T03:38:15.217Z,14.73
2022-09-10T03:40:42.164Z,15.23
2022-09-10T03:43:13.102Z,15.15
2022-09-10T03:45:40.122Z,14.68
2022-09-10T03:48:07.142Z,13.85
2022-09-10T03:50:34.190Z,14.65
2022-09-10T03:53:03.951Z,13.70
2022-09-10T03:55:31.050Z,13.82
2022-09-10T03:57:58.529Z,12.82
2022-09-10T04:00:27.191Z,14.40
2022-09-10T04:02:54.054Z,14.18
2022-09-10T04:05:21.657Z,13.40
2022-09-10T04:07:49.041Z,14.35
2022-09-10T04:10:16.290Z,14.07
2022-09-10T04:12:43.612Z,14.10
2022-09-10T04:15:10.929Z,13.73
2022-09-10T04:17:39.309Z,14.52
2022-09-10T04:20:07.319Z,14.38
2022-09-10T04:22:34.871Z,14.02
2022-09-10T04:25:01.961Z,13.95
2022-09-10T04:27:28.767Z,15.82
2022-09-10T04:29:56.628Z,15.32
2022-09-10T04:32:23.880Z,16.95
2022-09-10T04:34:52.294Z,17.55
2022-09-10T04:37:19.536Z,17.88
2022-09-10T04:39:47.349Z,17.75
2022-09-10T04:42:15.461Z,18.38
2022-09-10T04:44:42.334Z,15.82
2022-09-10T04:47:09.215Z,15.00
2022-09-10T04:49:36.177Z,14.68
2022-09-10T04:52:04.930Z,13.73
2022-09-10T04:54:33.650Z,14.20
2022-09-10T04:57:01.164Z,14.05
2022-09-10T04:59:29.757Z,14.63
2022-09-10T05:01:57.760Z,14.02
2022-09-10T05:04:25.535Z,14.60
2022-09-10T05:06:53.543Z,14.70
2022-09-10T05:09:21.776Z,15.38
2022-09-10T05:11:49.875Z,15.27
2022-09-10T05:14:19.173Z,14.90
2022-09-10T05:16:47.043Z,16.75
2022-09-10T05:19:17.952Z,14.85
2022-09-10T05:21:53.348Z,15.63
2022-09-10T05:24:21.496Z,14.02
2022-09-10T05:26:48.702Z,14.70
2022-09-10T05:29:16.781Z,14.02
2022-09-10T05:31:44.494Z,15.10
2022-09-10T05:34:11.369Z,15.85
2022-09-10T05:36:38.421Z,15.68
2022-09-10T05:39:05.468Z,17.95
2022-09-10T05:41:37.739Z,16.55
2022-09-10T05:44:05.597Z,16.10
2022-09-10T05:46:33.354Z,15.85
2022-09-10T05:49:07.889Z,15.63
2022-09-10T05:51:34.862Z,15.98
2022-09-10T05:54:03.749Z,15.85
2022-09-10T05:56:32.460Z,16.15
2022-09-10T05:59:00.900Z,18.15
2022-09-10T06:01:29.202Z,16.20
2022-09-10T06:03:56.435Z,18.50
2022-09-10T06:06:24.149Z,17.23
2022-09-10T06:08:57.350Z,17.52
2022-09-10T06:11:38.695Z,17.50
2022-09-10T06:14:07.502Z,16.45
2022-09-10T06:16:35.022Z,16.42
2022-09-10T06:19:03.010Z,15.75
2022-09-10T06:21:29.987Z,15.70
2022-09-10T06:23:58.353Z,15.48
2022-09-10T06:26:27.862Z,15.00
2022-09-10T06:28:58.571Z,15.30
2022-09-10T06:31:27.684Z,15.15
2022-09-10T06:33:55.623Z,14.30
2022-09-10T06:36:27.658Z,13.77
2022-09-10T06:38:57.897Z,15.18
2022-09-10T06:41:26.015Z,12.65
2022-09-10T06:44:04.545Z,9.25
2022-09-10T06:47:30.523Z,8.48
2022-09-10T06:49:34.543Z,6.93
2022-09-10T06:52:04.650Z,7.32
2022-09-10T06:54:31.975Z,7.32
2022-09-10T06:57:10.318Z,11.15
2022-09-10T06:59:37.389Z,12.32
2022-09-10T07:02:05.616Z,12.32
2022-09-10T07:04:32.559Z,12.23
2022-09-10T07:07:00.886Z,12.77
2022-09-10T07:09:28.788Z,12.20
2022-09-10T07:11:57.847Z,11.10
2022-09-10T07:14:25.526Z,11.55
2022-09-10T07:16:53.523Z,10.93
2022-09-10T07:19:25.365Z,11.88
2022-09-10T07:21:52.609Z,10.85
2022-09-10T07:24:20.269Z,10.98
2022-09-10T07:27:07.365Z,11.65
2022-09-10T07:29:35.801Z,11.90
2022-09-10T07:32:04.520Z,11.80
2022-09-10T07:34:33.766Z,11.95
2022-09-10T07:37:01.905Z,10.25
2022-09-10T07:39:30.522Z,10.27
2022-09-10T07:41:58.138Z,11.00
2022-09-10T07:44:28.302Z,9.23
2022-09-10T07:46:59.693Z,10.43
2022-09-10T07:49:27.869Z,9.75
2022-09-10T07:51:59.851Z,9.82
2022-09-10T07:54:31.518Z,10.57
2022-09-10T07:56:59.823Z,10.27
2022-09-10T07:59:27.352Z,10.07
2022-09-10T08:02:01.946Z,9.73
2022-09-10T08:04:36.551Z,9.88
2022-09-10T08:07:07.517Z,9.77
2022-09-10T08:09:37.557Z,9.10
2022-09-10T08:12:07.728Z,8.80
2022-09-10T08:14:34.802Z,8.82
2022-09-10T08:17:02.174Z,9.43
2022-09-10T08:19:29.814Z,8.85
2022-09-10T08:21:59.549Z,8.27
2022-09-10T08:24:32.742Z,7.53
2022-09-10T08:26:59.948Z,8.15
2022-09-10T08:29:26.793Z,8.77
2022-09-10T08:31:53.773Z,7.70
2022-09-10T08:34:27.163Z,7.72
2022-09-10T08:37:03.471Z,8.05
2022-09-10T08:39:33.755Z,8.52
2022-09-10T08:42:05.653Z,8.05
2022-09-10T08:44:40.652Z,8.30
2022-09-10T08:47:21.268Z,6.32
2022-09-10T08:49:54.406Z,6.53
2022-09-10T08:52:29.886Z,7.82
2022-09-10T08:55:04.554Z,6.80
2022-09-10T08:57:34.928Z,7.57
2022-09-10T09:00:03.730Z,8.55
2022-09-10T09:02:49.160Z,7.95
2022-09-10T09:05:20.518Z,8.63
2022-09-10T09:07:51.338Z,7.53
2022-09-10T09:10:32.609Z,9.43
2022-09-10T09:13:26.617Z,7.68
2022-09-10T09:16:05.030Z,7.95
2022-09-10T09:18:38.348Z,8.73
2022-09-10T09:21:13.105Z,7.97
2022-09-10T09:24:11.815Z,8.43
2022-09-10T09:26:41.687Z,7.90
2022-09-10T09:29:14.461Z,8.98
2022-09-10T09:31:46.541Z,7.55
2022-09-10T09:34:22.097Z,7.50
2022-09-10T09:36:52.791Z,7.80
2022-09-10T09:39:25.783Z,7.53
2022-09-10T09:42:04.628Z,8.38
2022-09-10T09:44:38.897Z,7.72
2022-09-10T09:47:07.707Z,7.90
2022-09-10T09:49:36.010Z,8.88
2022-09-10T09:52:15.253Z,8.27
2022-09-10T09:55:13.070Z,8.30
2022-09-10T09:57:37.155Z,7.57
2022-09-10T10:00:36.053Z,7.93
2022-09-10T10:03:15.805Z,8.05
2022-09-10T10:05:42.976Z,7.45
2022-09-10T10:08:28.985Z,6.88
2022-09-10T10:10:56.149Z,7.60
2022-09-10T10:13:24.673Z,7.80
2022-09-10T10:15:51.772Z,8.18
2022-09-10T10:18:31.977Z,7.30
2022-09-10T10:21:14.278Z,7.03
2022-09-10T10:23:41.162Z,7.65
2022-09-10T10:26:26.272Z,7.75
2022-09-10T10:28:59.953Z,7.88
2022-09-10T10:31:39.945Z,7.43
2022-09-10T10:34:34.614Z,7.63
2022-09-10T10:37:08.829Z,7.70
2022-09-10T10:39:53.265Z,7.13
2022-09-10T10:42:27.943Z,6.18
2022-09-10T10:45:17.126Z,6.75
2022-09-10T10:47:48.799Z,6.15
2022-09-10T10:50:30.022Z,6.32
2022-09-10T10:53:22.837Z,6.63
2022-09-10T10:55:57.276Z,6.38
2022-09-10T10:58:53.539Z,6.15
2022-09-10T11:01:25.214Z,6.68
2022-09-10T11:04:01.045Z,7.57
2022-09-10T11:06:35.257Z,6.47
2022-09-10T11:09:06.416Z,6.25
2022-09-10T11:11:39.378Z,5.88
2022-09-10T11:14:19.079Z,5.10
2022-09-10T11:16:55.347Z,5.75
2022-09-10T11:19:35.695Z,6.45
2022-09-10T11:22:09.683Z,6.03
2022-09-10T11:24:44.034Z,4.97
2022-09-10T11:27:14.601Z,5.60
2022-09-10T11:29:48.319Z,4.78
2022-09-10T11:32:27.044Z,4.70
2022-09-10T11:35:02.468Z,4.10
2022-09-10T11:37:43.742Z,4.50
2022-09-10T11:40:17.654Z,5.45
2022-09-10T11:42:51.396Z,4.30
2022-09-10T11:45:23.135Z,4.40
2022-09-10T11:47:57.214Z,4.97
2022-09-10T11:50:34.552Z,4.43
2022-09-10T11:53:04.030Z,3.55
2022-09-10T11:55:40.394Z,4.10
2022-09-10T11:58:17.592Z,3.55
2022-09-10T12:00:55.174Z,3.95
2022-09-10T12:03:53.052Z,2.97
2022-09-10T12:06:26.644Z,3.58
2022-09-10T12:09:05.900Z,4.30
2022-09-10T12:11:40.935Z,3.50
2022-09-10T12:14:13.830Z,3.30
2022-09-10T12:16:46.366Z,3.75
2022-09-10T12:19:23.094Z,3.45
2022-09-10T12:21:53.163Z,3.03
2022-09-10T12:24:27.725Z,3.80
2022-09-10T12:26:55.181Z,3.20
2022-09-10T12:29:33.236Z,2.95
2022-09-10T12:32:29.074Z,3.70
2022-09-10T12:35:46.708Z,3.60
2022-09-10T12:38:50.944Z,3.47
2022-09-10T12:41:57.598Z,2.83
2022-09-10T12:44:45.918Z,3.08
2022-09-10T12:47:42.136Z,3.25
2022-09-10T12:50:46.346Z,3.20
2022-09-10T12:53:55.387Z,3.10
2022-09-10T12:56:50.545Z,3.67
2022-09-10T12:59:39.684Z,4.00
2022-09-10T13:02:20.639Z,4.32
2022-09-10T13:04:54.915Z,4.50
2022-09-10T13:07:25.592Z,4.75
2022-09-10T13:10:01.756Z,6.10
2022-09-10T13:12:32.751Z,4.60
2022-09-10T13:15:02.736Z,5.10
2022-09-10T13:17:38.610Z,6.10
2022-09-10T13:20:29.592Z,5.53
2022-09-10T13:22:58.501Z,5.43
2022-09-10T13:25:35.035Z,7.07
2022-09-10T13:28:02.321Z,6.28
2022-09-10T13:30:31.083Z,5.22
2022-09-10T13:33:00.532Z,5.38
2022-09-10T13:36:02.546Z,4.90
2022-09-10T13:38:54.036Z,4.60
2022-09-10T13:41:49.868Z,5.25
2022-09-10T13:44:33.275Z,5.90
2022-09-10T13:47:09.411Z,5.80
2022-09-10T13:49:44.697Z,5.07
2022-09-10T13:52:15.449Z,5.35
2022-09-10T13:54:47.637Z,5.63
2022-09-10T13:57:19.393Z,5.32
2022-09-10T13:59:50.270Z,5.90
2022-09-10T14:02:21.436Z,4.60
2022-09-10T14:04:48.714Z,5.25
2022-09-10T14:07:20.292Z,5.03
2022-09-10T14:09:49.714Z,5.07
2022-09-10T14:12:20.962Z,4.38
2022-09-10T14:14:52.273Z,4.63
2022-09-10T14:17:24.140Z,4.78
2022-09-10T14:19:56.552Z,4.72
2022-09-10T14:22:26.050Z,4.57
2022-09-10T14:33:53.118Z,5.68
2022-09-10T14:36:23.136Z,4.57
2022-09-10T14:38:56.315Z,4.88
2022-09-10T14:41:26.323Z,5.32
2022-09-10T14:44:14.997Z,5.03
2022-09-10T14:46:51.675Z,4.43
2022-09-10T14:49:26.708Z,3.88
2022-09-10T14:54:20.847Z,3.40
2022-09-10T14:56:48.729Z,3.45
2022-09-10T14:59:18.568Z,3.20
2022-09-10T15:01:48.711Z,3.55
2022-09-10T15:04:17.555Z,3.25
2022-09-10T15:06:45.856Z,3.63
2022-09-10T15:09:13.458Z,3.53
2022-09-10T15:11:49.048Z,3.40
2022-09-10T15:14:17.183Z,3.60
2022-09-10T15:16:44.234Z,3.53
2022-09-10T15:19:11.763Z,3.92
2022-09-10T15:21:39.562Z,4.03
2022-09-10T15:24:12.590Z,4.03
2022-09-10T15:26:39.412Z,4.20
2022-09-10T15:29:06.252Z,3.83
2022-09-10T15:31:33.092Z,3.85
2022-09-10T15:34:00.085Z,3.80
2022-09-10T15:36:28.520Z,4.45
2022-09-10T15:38:55.814Z,4.28
2022-09-10T15:41:23.971Z,4.78
2022-09-10T15:43:51.020Z,4.60
2022-09-10T15:46:20.143Z,4.25
2022-09-10T15:48:47.675Z,4.70
2022-09-10T15:51:15.837Z,4.38
2022-09-10T15:53:43.625Z,5.18
2022-09-10T15:56:11.876Z,4.72
2022-09-10T15:58:40.816Z,3.92
2022-09-10T16:01:11.507Z,4.90
2022-09-10T16:03:39.276Z,5.32
2022-09-10T16:06:07.570Z,5.40
2022-09-10T16:08:34.435Z,5.07
2022-09-10T16:11:07.958Z,5.32
2022-09-10T16:13:35.713Z,4.95
2022-09-10T16:16:06.843Z,5.68
2022-09-10T16:18:33.921Z,7.47
2022-09-10T16:21:09.367Z,5.85
2022-09-10T16:23:37.220Z,6.05
2022-09-10T16:26:06.182Z,6.25
2022-09-10T16:28:33.323Z,5.65
2022-09-10T16:31:13.763Z,5.82
2022-09-10T16:33:40.790Z,5.32
2022-09-10T16:36:08.478Z,5.43
2022-09-10T16:38:35.507Z,5.68
2022-09-10T16:41:02.600Z,5.18
2022-09-10T16:43:31.273Z,5.63
2022-09-10T16:45:58.121Z,5.45
2022-09-10T16:48:26.198Z,5.82
2022-09-10T16:51:01.792Z,5.95
2022-09-10T16:53:28.541Z,5.55
2022-09-10T16:56:01.045Z,5.47
2022-09-10T16:58:30.905Z,5.32
2022-09-10T17:00:59.653Z,5.18
2022-09-10T17:03:29.926Z,5.80
2022-09-10T17:05:56.988Z,5.90
2022-09-10T17:08:23.941Z,6.35
2022-09-10T17:10:50.696Z,6.43
2022-09-10T17:13:17.492Z,7.03
2022-09-10T17:15:44.626Z,6.38
2022-09-10T17:18:14.564Z,6.43
2022-09-10T17:20:43.169Z,6.13
2022-09-10T17:23:11.050Z,5.70
2022-09-10T17:25:38.199Z,5.90
2022-09-10T17:28:05.388Z,6.18
2022-09-10T17:30:32.196Z,5.75
2022-09-10T17:32:59.706Z,5.65
2022-09-10T17:35:26.759Z,6.88
2022-09-10T17:37:54.982Z,6.60
2022-09-10T17:40:21.769Z,7.30
2022-09-10T17:42:49.021Z,6.97
2022-09-10T17:45:16.219Z,6.32
2022-09-10T17:47:43.008Z,7.07
2022-09-10T17:50:10.217Z,7.90
2022-09-10T17:52:36.968Z,7.68
2022-09-10T17:55:05.842Z,8.80
2022-09-10T17:57:32.670Z,8.57
2022-09-10T17:59:59.458Z,8.45
2022-09-10T18:02:26.256Z,9.32
2022-09-10T18:04:53.322Z,9.77
2022-09-10T18:07:20.297Z,9.73
2022-09-10T18:09:47.590Z,9.77
2022-09-10T18:12:16.204Z,8.60
2022-09-10T18:14:43.010Z,9.05
2022-09-10T18:17:09.909Z,9.15
2022-09-10T18:19:36.688Z,10.70
2022-09-10T18:22:03.493Z,9.18
2022-09-10T18:24:30.364Z,9.48
2022-09-10T18:26:57.928Z,9.18
2022-09-10T18:29:30.003Z,9.57
2022-09-10T18:31:58.551Z,9.60
2022-09-10T18:34:27.954Z,9.88
2022-09-10T18:36:57.546Z,10.27
2022-09-10T18:39:25.650Z,11.85
2022-09-10T18:41:52.902Z,10.45
2022-09-10T18:44:21.846Z,11.18
2022-09-10T18:46:51.045Z,11.13
2022-09-10T18:49:21.406Z,10.75
2022-09-10T18:51:48.737Z,10.68
2022-09-10T18:54:17.112Z,9.02
2022-09-10T18:56:45.072Z,8.75
2022-09-10T18:59:13.142Z,8.68
2022-09-10T19:01:43.219Z,8.25
2022-09-10T19:04:13.321Z,8.35
2022-09-10T19:06:43.259Z,8.15
2022-09-10T19:09:13.001Z,8.45
2022-09-10T19:11:41.855Z,9.25
2022-09-10T19:14:14.358Z,8.60
2022-09-10T19:16:41.670Z,9.65
2022-09-10T19:19:18.581Z,8.05
2022-09-10T19:21:48.511Z,8.95
2022-09-10T19:24:16.738Z,8.73
2022-09-10T19:26:44.535Z,8.98
2022-09-10T19:29:12.903Z,8.65
2022-09-10T19:31:40.961Z,8.35
2022-09-10T19:34:10.138Z,8.18
2022-09-10T19:36:37.170Z,9.20
2022-09-10T19:39:07.469Z,8.60
2022-09-10T19:41:35.579Z,8.32
2022-09-10T19:44:03.661Z,8.35
2022-09-10T19:46:31.312Z,9.13
2022-09-10T19:48:59.914Z,8.70
2022-09-10T19:51:28.858Z,8.57
2022-09-10T19:53:56.307Z,9.10
2022-09-10T19:56:27.377Z,9.02
2022-09-10T19:58:58.564Z,9.45
2022-09-10T20:01:27.649Z,8.38
2022-09-10T20:03:55.910Z,9.90
2022-09-10T20:06:25.504Z,8.57
2022-09-10T20:08:52.750Z,9.25
2022-09-10T20:11:21.633Z,10.15
2022-09-10T20:13:54.218Z,8.80
2022-09-10T20:16:21.130Z,9.13
2022-09-10T20:18:51.568Z,9.27
2022-09-10T20:21:22.115Z,9.05
2022-09-10T20:23:51.596Z,9.10
2022-09-10T20:28:52.819Z,8.50
2022-09-10T20:31:20.766Z,10.90
2022-09-10T20:33:49.226Z,10.32
2022-09-10T20:36:17.584Z,10.73
2022-09-10T20:38:45.361Z,11.70
2022-09-10T20:41:12.281Z,11.23
2022-09-10T20:43:39.640Z,11.25
2022-09-10T20:46:14.348Z,11.15
2022-09-10T20:48:44.826Z,11.43
2022-09-10T20:51:14.223Z,10.98
2022-09-10T20:53:41.768Z,12.75
2022-09-10T20:56:11.501Z,12.65
2022-09-10T20:58:39.182Z,12.40
2022-09-10T21:01:09.948Z,11.60
2022-09-10T21:03:37.546Z,10.23
2022-09-10T21:06:04.622Z,10.43
2022-09-10T21:08:31.762Z,10.32
2022-09-10T21:11:02.723Z,10.45
2022-09-10T21:13:29.596Z,9.95
2022-09-10T21:16:11.310Z,10.10
2022-09-10T21:18:41.053Z,10.43
2022-09-10T21:21:09.348Z,12.07
2022-09-10T21:23:42.086Z,12.02
2022-09-10T21:26:08.901Z,13.02
2022-09-10T21:28:35.725Z,12.98
2022-09-10T21:31:03.558Z,12.45
2022-09-10T21:33:32.024Z,12.60
2022-09-10T21:36:00.316Z,13.20
2022-09-10T21:38:27.183Z,12.95
2022-09-10T21:40:57.630Z,13.38
2022-09-10T21:43:25.166Z,12.85
2022-09-10T21:45:52.353Z,12.43
2022-09-10T21:48:19.618Z,12.55
2022-09-10T21:50:48.264Z,10.35
2022-09-10T21:53:17.002Z,10.70
2022-09-10T21:55:43.834Z,9.82
2022-09-10T21:58:10.662Z,10.10
2022-09-10T22:00:37.582Z,10.10
2022-09-10T22:03:04.335Z,10.73
2022-09-10T22:05:31.130Z,8.80
2022-09-10T22:07:59.283Z,9.35
2022-09-10T22:10:26.607Z,7.70
2022-09-10T22:12:53.417Z,8.73
2022-09-10T22:15:20.141Z,7.88
2022-09-10T22:17:46.873Z,8.00
2022-09-10T22:20:13.577Z,9.00
2022-09-10T22:22:40.312Z,7.90
2022-09-10T22:25:09.285Z,8.40
2022-09-10T22:27:36.069Z,9.15
2022-09-10T22:30:04.762Z,8.02
2022-09-10T22:32:33.968Z,8.93
2022-09-10T22:35:01.276Z,8.27
2022-09-10T22:37:28.123Z,8.60
2022-09-10T22:39:55.278Z,9.68
2022-09-10T22:42:23.483Z,8.70
2022-09-10T22:44:50.167Z,8.13
2022-09-10T22:47:16.961Z,8.32
2022-09-10T22:49:46.477Z,7.28
2022-09-10T22:52:13.551Z,6.85
2022-09-10T22:54:40.586Z,6.63
2022-09-10T22:57:08.403Z,7.25
2022-09-10T22:59:37.864Z,6.38
2022-09-10T23:02:04.912Z,6.88
2022-09-10T23:04:31.763Z,5.63
2022-09-10T23:06:58.591Z,5.82
2022-09-10T23:09:25.577Z,6.20
2022-09-10T23:11:52.636Z,6.03
2022-09-10T23:14:21.815Z,6.47
2022-09-10T23:16:51.929Z,6.03
2022-09-10T23:19:21.721Z,6.40
2022-09-10T23:21:51.170Z,6.03
2022-09-10T23:24:20.107Z,6.03
2022-09-10T23:26:47.111Z,6.70
2022-09-10T23:29:16.895Z,5.82
2022-09-10T23:31:46.025Z,5.78
2022-09-10T23:34:16.082Z,5.78
2022-09-10T23:36:45.627Z,5.70
2022-09-10T23:39:14.473Z,6.85
2022-09-10T23:41:41.834Z,6.90
2022-09-10T23:44:09.127Z,6.63
2022-09-10T23:46:36.718Z,6.43
2022-09-10T23:49:04.648Z,6.55
2022-09-10T23:51:33.369Z,7.80
2022-09-10T23:54:00.197Z,6.82
2022-09-10T23:56:28.528Z,7.82
2022-09-10T23:58:56.246Z,7.38
